Wetterdaten: Woche 13.02.17 - 19.02.17 (KW7)
Datum Zeit Temp. A. Feuchte A. Luftdruck Regen Wind Richtung Taupunkt Windchill Windben
13.02.2017 00:00 0,0 C 79 % 1033,4 hPa 0,0 l/m 0,0 km/h N -3,2 C 0,0 C 0,4 km/h
13.02.2017 01:00 -0,7 C 80 % 1033,5 hPa 0,0 l/m 0,0 km/h N -3,7 C -0,7 C 0,0 km/h
13.02.2017 02:00 -0,9 C 82 % 1033,7 hPa 0,0 l/m 0,0 km/h N -3,6 C -0,9 C 0,8 km/h
13.02.2017 03:00 -0,7 C 82 % 1033,9 hPa 0,0 l/m 0,0 km/h N -3,4 C -0,7 C 0,8 km/h
13.02.2017 04:00 -0,8 C 82 % 1034,1 hPa 0,0 l/m 0,0 km/h N -3,5 C -0,8 C 1,2 km/h
13.02.2017 05:00 -1,5 C 82 % 1034,5 hPa 0,0 l/m 0,0 km/h N -4,2 C -1,5 C 0,4 km/h
13.02.2017 06:00 -2,3 C 83 % 1034,9 hPa 0,0 l/m 0,0 km/h N -4,8 C -2,3 C 1,2 km/h
13.02.2017 07:00 -3,0 C 83 % 1035,3 hPa 0,0 l/m 0,0 km/h N -5,4 C -3,0 C 0,0 km/h
13.02.2017 08:00 -3,0 C 84 % 1035,7 hPa 0,0 l/m 0,0 km/h N -5,3 C -3,0 C 1,6 km/h
13.02.2017 09:00 -1,2 C 84 % 1035,8 hPa 0,0 l/m 0,1 km/h N -3,6 C -1,2 C 2,8 km/h
13.02.2017 10:00 1,1 C 82 % 1035,8 hPa 0,0 l/m 0,1 km/h N -1,7 C 1,1 C 4,4 km/h
13.02.2017 11:00 3,0 C 70 % 1035,9 hPa 0,0 l/m 0,1 km/h N -2,0 C 3,0 C 3,6 km/h
13.02.2017 12:00 4,1 C 64 % 1035,4 hPa 0,0 l/m 0,6 km/h N -2,0 C 4,1 C 7,6 km/h
13.02.2017 13:00 4,8 C 64 % 1034,9 hPa 0,0 l/m 0,8 km/h N -1,6 C 4,8 C 7,6 km/h
13.02.2017 14:00 5,4 C 62 % 1034,4 hPa 0,0 l/m 0,7 km/h N -1,4 C 5,4 C 6,0 km/h
13.02.2017 15:00 5,1 C 61 % 1034,2 hPa 0,0 l/m 0,5 km/h N -1,8 C 5,1 C 5,6 km/h
13.02.2017 16:00 3,7 C 65 % 1034,6 hPa 0,0 l/m 0,2 km/h N -2,3 C 3,7 C 4,0 km/h
13.02.2017 17:00 2,2 C 68 % 1034,9 hPa 0,0 l/m 0,0 km/h N -3,1 C 2,2 C 2,4 km/h
13.02.2017 18:00 1,0 C 70 % 1035,3 hPa 0,0 l/m 0,0 km/h N -3,9 C 1,0 C 0,4 km/h
13.02.2017 19:00 -0,2 C 72 % 1035,4 hPa 0,0 l/m 0,0 km/h N -4,7 C -0,2 C 0,0 km/h
13.02.2017 20:00 -1,6 C 75 % 1035,2 hPa 0,0 l/m 0,0 km/h N -5,5 C -1,6 C 0,4 km/h
13.02.2017 21:00 -2,7 C 78 % 1035,1 hPa 0,0 l/m 0,0 km/h N -6,0 C -2,7 C 0,4 km/h
13.02.2017 22:00 -3,3 C 80 % 1034,8 hPa 0,0 l/m 0,0 km/h N -6,2 C -3,3 C 0,4 km/h
13.02.2017 23:00 -3,8 C 82 % 1034,7 hPa 0,0 l/m 0,0 km/h N -6,5 C -3,8 C 0,8 km/h
14.02.2017 00:00 -4,3 C 83 % 1034,6 hPa 0,0 l/m 0,0 km/h N -6,8 C -4,3 C 0,4 km/h
14.02.2017 01:00 -4,7 C 83 % 1034,4 hPa 0,0 l/m 0,0 km/h N -7,2 C -4,7 C 0,0 km/h
14.02.2017 02:00 -5,1 C 84 % 1034,2 hPa 0,0 l/m 0,0 km/h N -7,4 C -5,1 C 0,4 km/h
14.02.2017 03:00 -5,3 C 84 % 1034,3 hPa 0,0 l/m 0,0 km/h N -7,6 C -5,3 C 0,0 km/h
14.02.2017 04:00 -5,6 C 84 % 1034,2 hPa 0,0 l/m 0,0 km/h N -7,8 C -5,6 C 0,0 km/h
14.02.2017 05:00 -6,0 C 84 % 1034,4 hPa 0,0 l/m 0,0 km/h N -8,2 C -6,0 C 0,0 km/h
14.02.2017 06:00 -6,2 C 85 % 1034,6 hPa 0,0 l/m 0,0 km/h N -8,4 C -6,2 C 0,0 km/h
14.02.2017 07:00 -6,6 C 85 % 1035,1 hPa 0,0 l/m 0,0 km/h N -8,6 C -6,6 C 0,0 km/h
14.02.2017 08:00 -5,7 C 84 % 1035,3 hPa 0,0 l/m 0,0 km/h N -8,0 C -5,7 C 0,4 km/h
14.02.2017 09:00 -2,7 C 84 % 1035,4 hPa 0,0 l/m 0,1 km/h N -5,0 C -2,7 C 2,4 km/h
14.02.2017 10:00 0,3 C 84 % 1035,2 hPa 0,0 l/m 0,1 km/h N -2,1 C 0,3 C 2,8 km/h
14.02.2017 11:00 1,7 C 83 % 1035,6 hPa 0,0 l/m 0,2 km/h N -0,9 C 1,7 C 5,2 km/h
14.02.2017 12:00 3,8 C 78 % 1035,6 hPa 0,0 l/m 0,4 km/h N 0,4 C 3,8 C 4,8 km/h
14.02.2017 13:00 5,8 C 70 % 1035,4 hPa 0,0 l/m 0,3 km/h N 0,8 C 5,8 C 6,0 km/h
14.02.2017 14:00 7,0 C 66 % 1035,2 hPa 0,0 l/m 0,2 km/h N 1,0 C 7,0 C 3,6 km/h
14.02.2017 15:00 7,0 C 64 % 1035,1 hPa 0,0 l/m 0,1 km/h N 0,7 C 7,0 C 2,0 km/h
14.02.2017 16:00 6,0 C 67 % 1035,1 hPa 0,0 l/m 0,0 km/h N 0,3 C 6,0 C 0,8 km/h
14.02.2017 17:00 4,0 C 69 % 1035,4 hPa 0,0 l/m 0,0 km/h N -1,1 C 4,0 C 0,0 km/h
14.02.2017 18:00 1,4 C 73 % 1036,2 hPa 0,0 l/m 0,0 km/h N -2,9 C 1,4 C 0,0 km/h
14.02.2017 19:00 -0,4 C 77 % 1036,5 hPa 0,0 l/m 0,0 km/h N -4,0 C -0,4 C 0,0 km/h
14.02.2017 20:00 -1,6 C 80 % 1036,5 hPa 0,0 l/m 0,0 km/h N -4,6 C -1,6 C 0,0 km/h
14.02.2017 21:00 -2,3 C 82 % 1036,3 hPa 0,0 l/m 0,0 km/h N -4,9 C -2,3 C 0,0 km/h
14.02.2017 22:00 -2,7 C 83 % 1036,3 hPa 0,0 l/m 0,0 km/h N -5,1 C -2,7 C 0,0 km/h
14.02.2017 23:00 -3,2 C 84 % 1036,4 hPa 0,0 l/m 0,0 km/h N -5,5 C -3,2 C 0,0 km/h
15.02.2017 00:00 -3,5 C 84 % 1036,3 hPa 0,0 l/m 0,0 km/h N -5,8 C -3,5 C 0,0 km/h
15.02.2017 01:00 -3,3 C 84 % 1036,1 hPa 0,0 l/m 0,0 km/h N -5,6 C -3,3 C 0,0 km/h
15.02.2017 02:00 -3,5 C 84 % 1035,9 hPa 0,0 l/m 0,0 km/h N -5,8 C -3,5 C 0,0 km/h
15.02.2017 03:00 -3,7 C 84 % 1035,9 hPa 0,0 l/m 0,0 km/h N -6,0 C -3,7 C 0,4 km/h
15.02.2017 04:00 -4,2 C 84 % 1036,2 hPa 0,0 l/m 0,0 km/h N -6,5 C -4,2 C 0,0 km/h
15.02.2017 05:00 -4,6 C 84 % 1036,3 hPa 0,0 l/m 0,0 km/h N -6,9 C -4,6 C 0,0 km/h
15.02.2017 06:00 -4,5 C 84 % 1036,4 hPa 0,0 l/m 0,1 km/h N -6,8 C -4,5 C 1,2 km/h
15.02.2017 07:00 -3,2 C 84 % 1036,8 hPa 0,0 l/m 0,1 km/h N -5,5 C -3,2 C 1,2 km/h
15.02.2017 08:00 -2,9 C 84 % 1037,2 hPa 0,0 l/m 0,0 km/h N -5,2 C -2,9 C 0,0 km/h
15.02.2017 09:00 -0,1 C 84 % 1037,0 hPa 0,0 l/m 0,0 km/h N -2,4 C -0,1 C 0,0 km/h
15.02.2017 10:00 3,5 C 84 % 1036,8 hPa 0,0 l/m 0,0 km/h N 1,0 C 3,5 C 1,6 km/h
15.02.2017 11:00 6,4 C 74 % 1036,4 hPa 0,0 l/m 0,1 km/h N 1,9 C 6,4 C 2,8 km/h
15.02.2017 12:00 8,8 C 59 % 1035,6 hPa 0,0 l/m 0,1 km/h N 1,2 C 8,8 C 2,8 km/h
15.02.2017 13:00 10,8 C 54 % 1035,1 hPa 0,0 l/m 0,0 km/h N 1,8 C 10,8 C 1,6 km/h
15.02.2017 14:00 11,4 C 49 % 1034,8 hPa 0,0 l/m 0,2 km/h N 1,2 C 11,4 C 3,2 km/h
15.02.2017 15:00 11,6 C 46 % 1034,8 hPa 0,0 l/m 0,1 km/h N 0,3 C 11,6 C 2,8 km/h
15.02.2017 16:00 10,3 C 48 % 1034,8 hPa 0,0 l/m 0,0 km/h N -0,3 C 10,3 C 1,6 km/h
15.02.2017 17:00 7,3 C 55 % 1035,1 hPa 0,0 l/m 0,0 km/h N -1,1 C 7,3 C 0,0 km/h
15.02.2017 18:00 3,8 C 63 % 1035,4 hPa 0,0 l/m 0,0 km/h N -2,6 C 3,8 C 0,0 km/h
15.02.2017 19:00 1,6 C 69 % 1035,5 hPa 0,0 l/m 0,0 km/h N -3,5 C 1,6 C 0,0 km/h
15.02.2017 20:00 0,5 C 75 % 1035,3 hPa 0,0 l/m 0,0 km/h N -3,4 C 0,5 C 0,4 km/h
15.02.2017 21:00 0,0 C 79 % 1035,1 hPa 0,0 l/m 0,1 km/h N -3,2 C 0,0 C 2,0 km/h
15.02.2017 22:00 -0,5 C 81 % 1034,9 hPa 0,0 l/m 0,1 km/h N -3,4 C -0,5 C 1,6 km/h
15.02.2017 23:00 -1,3 C 81 % 1035,0 hPa 0,0 l/m 0,0 km/h N -4,2 C -1,3 C 0,0 km/h
16.02.2017 00:00 -2,0 C 82 % 1035,1 hPa 0,0 l/m 0,0 km/h N -4,7 C -2,0 C 0,8 km/h
16.02.2017 01:00 -2,7 C 82 % 1034,9 hPa 0,0 l/m 0,0 km/h N -5,2 C -2,7 C 0,0 km/h
16.02.2017 02:00 -3,3 C 83 % 1034,8 hPa 0,0 l/m 0,0 km/h N -5,7 C -3,3 C 0,0 km/h
16.02.2017 03:00 -3,1 C 84 % 1034,4 hPa 0,0 l/m 0,1 km/h N -5,5 C -3,1 C 1,6 km/h
16.02.2017 04:00 -3,7 C 84 % 1034,4 hPa 0,0 l/m 0,0 km/h N -6,0 C -3,7 C 0,0 km/h
16.02.2017 05:00 -4,3 C 84 % 1034,6 hPa 0,0 l/m 0,0 km/h N -6,6 C -4,3 C 0,0 km/h
16.02.2017 06:00 -4,7 C 84 % 1034,6 hPa 0,0 l/m 0,0 km/h N -7,0 C -4,7 C 0,0 km/h
16.02.2017 07:00 -4,9 C 84 % 1034,8 hPa 0,0 l/m 0,0 km/h N -7,1 C -4,9 C 0,0 km/h
16.02.2017 08:00 -4,1 C 84 % 1034,9 hPa 0,0 l/m 0,0 km/h N -6,3 C -4,1 C 0,0 km/h
16.02.2017 09:00 -2,0 C 84 % 1034,6 hPa 0,0 l/m 0,0 km/h N -4,3 C -2,0 C 2,4 km/h
16.02.2017 10:00 -0,1 C 84 % 1034,4 hPa 0,0 l/m 0,1 km/h N -2,4 C -0,1 C 2,8 km/h
16.02.2017 11:00 1,1 C 84 % 1034,0 hPa 0,0 l/m 0,2 km/h N -1,2 C 1,1 C 3,2 km/h
16.02.2017 12:00 2,4 C 83 % 1033,3 hPa 0,0 l/m 0,1 km/h N -0,2 C 2,4 C 4,0 km/h
16.02.2017 13:00 3,2 C 81 % 1032,4 hPa 0,0 l/m 0,2 km/h N 0,3 C 3,2 C 4,8 km/h
16.02.2017 14:00 3,3 C 81 % 1031,9 hPa 0,0 l/m 0,1 km/h N 0,3 C 3,3 C 2,8 km/h
16.02.2017 15:00 2,8 C 81 % 1031,5 hPa 0,0 l/m 0,1 km/h N -0,2 C 2,8 C 2,4 km/h
16.02.2017 16:00 1,9 C 81 % 1031,1 hPa 0,0 l/m 0,0 km/h N -0,9 C 1,9 C 0,0 km/h
16.02.2017 17:00 0,5 C 82 % 1031,1 hPa 0,0 l/m 0,0 km/h N -2,1 C 0,5 C 0,4 km/h
16.02.2017 18:00 -0,5 C 84 % 1031,2 hPa 0,0 l/m 0,0 km/h N -3,0 C -0,5 C 0,0 km/h
16.02.2017 19:00 -1,2 C 84 % 1030,8 hPa 0,0 l/m 0,0 km/h N -3,5 C -1,2 C 0,4 km/h
16.02.2017 20:00 -1,3 C 84 % 1030,5 hPa 0,0 l/m 0,0 km/h N -3,7 C -1,3 C 0,4 km/h
16.02.2017 21:00 -1,4 C 84 % 1030,3 hPa 0,0 l/m 0,0 km/h N -3,7 C -1,4 C 0,0 km/h
16.02.2017 22:00 -1,4 C 84 % 1029,8 hPa 0,0 l/m 0,0 km/h N -3,7 C -1,4 C 1,6 km/h
16.02.2017 23:00 -1,5 C 84 % 1029,3 hPa 0,0 l/m 0,1 km/h N -3,8 C -1,5 C 2,4 km/h
17.02.2017 00:00 -1,6 C 84 % 1028,8 hPa 0,0 l/m 0,0 km/h N -3,9 C -1,6 C 0,0 km/h
17.02.2017 01:00 -1,7 C 84 % 1028,0 hPa 0,0 l/m 0,0 km/h N -4,1 C -1,7 C 0,8 km/h
17.02.2017 02:00 -2,0 C 84 % 1027,5 hPa 0,0 l/m 0,0 km/h N -4,4 C -2,0 C 0,8 km/h
17.02.2017 03:00 -2,3 C 84 % 1026,9 hPa 0,0 l/m 0,0 km/h N -4,6 C -2,3 C 0,8 km/h
17.02.2017 04:00 -2,5 C 84 % 1026,4 hPa 0,0 l/m 0,1 km/h N -4,9 C -2,5 C 3,6 km/h
17.02.2017 05:00 -2,7 C 84 % 1025,9 hPa 0,0 l/m 0,2 km/h N -5,0 C -2,7 C 4,0 km/h
17.02.2017 06:00 -2,8 C 84 % 1025,3 hPa 0,0 l/m 0,3 km/h N -5,1 C -2,8 C 4,0 km/h
17.02.2017 07:00 -2,8 C 84 % 1025,2 hPa 0,0 l/m 0,3 km/h N -5,1 C -2,8 C 4,8 km/h
17.02.2017 08:00 -2,1 C 84 % 1024,8 hPa 0,0 l/m 0,3 km/h N -4,4 C -2,1 C 4,0 km/h
17.02.2017 09:00 -1,6 C 84 % 1024,6 hPa 0,0 l/m 0,3 km/h N -4,0 C -1,6 C 4,0 km/h
17.02.2017 10:00 -1,2 C 84 % 1024,8 hPa 0,0 l/m 0,1 km/h N -3,5 C -1,2 C 2,0 km/h
17.02.2017 11:00 -0,4 C 84 % 1024,3 hPa 0,0 l/m 0,0 km/h N -2,8 C -0,4 C 2,4 km/h
17.02.2017 12:00 0,7 C 84 % 1023,8 hPa 0,0 l/m 0,2 km/h N -1,7 C 0,7 C 3,6 km/h
17.02.2017 13:00 4,3 C 84 % 1023,3 hPa 0,0 l/m 5,5 km/h N 1,8 C 3,5 C 16,9 km/h
17.02.2017 14:00 6,1 C 81 % 1022,9 hPa 0,0 l/m 7,4 km/h N 3,1 C 5,1 C 20,9 km/h
17.02.2017 15:00 6,5 C 78 % 1022,6 hPa 0,0 l/m 7,4 km/h N 2,9 C 5,6 C 20,1 km/h
17.02.2017 16:00 6,4 C 78 % 1022,6 hPa 0,0 l/m 7,7 km/h N 2,7 C 5,3 C 19,7 km/h
17.02.2017 17:00 5,9 C 78 % 1023,2 hPa 0,0 l/m 6,3 km/h N 2,3 C 5,7 C 19,7 km/h
17.02.2017 18:00 5,2 C 79 % 1023,7 hPa 0,0 l/m 6,3 km/h N 1,8 C 4,7 C 22,1 km/h
17.02.2017 19:00 5,0 C 79 % 1023,9 hPa 0,0 l/m 6,8 km/h N 1,7 C 4,2 C 20,9 km/h
17.02.2017 20:00 5,1 C 78 % 1023,9 hPa 0,0 l/m 8,6 km/h N 1,5 C 3,3 C 21,7 km/h
17.02.2017 21:00 5,2 C 78 % 1024,1 hPa 0,0 l/m 9,8 km/h N 1,6 C 2,4 C 25,0 km/h
17.02.2017 22:00 5,3 C 76 % 1023,9 hPa 0,0 l/m 10,0 km/h N 1,5 C 2,5 C 26,1 km/h
17.02.2017 23:00 5,6 C 76 % 1023,6 hPa 0,0 l/m 13,5 km/h N 1,6 C 0,6 C 29,8 km/h
18.02.2017 00:00 5,3 C 79 % 1023,7 hPa 0,3 l/m 10,1 km/h N 1,9 C 2,5 C 29,4 km/h
18.02.2017 01:00 4,9 C 81 % 1023,2 hPa 0,3 l/m 9,8 km/h N 1,8 C 2,1 C 29,0 km/h
18.02.2017 02:00 4,7 C 82 % 1023,0 hPa 0,0 l/m 5,9 km/h N 1,8 C 4,7 C 19,3 km/h
18.02.2017 03:00 4,8 C 81 % 1023,0 hPa 0,0 l/m 5,7 km/h N 1,8 C 4,2 C 16,9 km/h
18.02.2017 04:00 5,0 C 80 % 1023,2 hPa 0,0 l/m 8,1 km/h N 1,8 C 3,5 C 19,7 km/h
18.02.2017 05:00 4,9 C 80 % 1023,4 hPa 0,0 l/m 6,9 km/h N 1,7 C 4,4 C 20,1 km/h
18.02.2017 06:00 4,6 C 81 % 1023,7 hPa 0,0 l/m 5,4 km/h N 1,7 C 4,6 C 18,9 km/h
18.02.2017 07:00 4,4 C 83 % 1024,3 hPa 0,5 l/m 5,6 km/h N 1,7 C 4,3 C 17,3 km/h
18.02.2017 08:00 4,3 C 83 % 1024,7 hPa 0,0 l/m 5,2 km/h N 1,8 C 4,4 C 17,7 km/h
18.02.2017 09:00 4,9 C 83 % 1024,6 hPa 0,0 l/m 8,2 km/h N 2,2 C 3,4 C 18,5 km/h
18.02.2017 10:00 5,9 C 80 % 1024,8 hPa 0,0 l/m 9,1 km/h N 2,7 C 3,7 C 22,9 km/h
18.02.2017 11:00 5,8 C 80 % 1025,0 hPa 0,0 l/m 7,9 km/h N 2,6 C 4,6 C 19,3 km/h
18.02.2017 12:00 5,6 C 81 % 1024,9 hPa 0,3 l/m 8,2 km/h N 2,6 C 4,2 C 21,3 km/h
18.02.2017 13:00 5,8 C 81 % 1024,8 hPa 0,0 l/m 6,4 km/h N 2,8 C 5,2 C 17,7 km/h
18.02.2017 14:00 6,0 C 80 % 1024,6 hPa 0,0 l/m 6,2 km/h N 2,8 C 6,0 C 17,7 km/h
18.02.2017 15:00 6,0 C 79 % 1024,8 hPa 0,0 l/m 5,7 km/h N 2,6 C 5,8 C 14,5 km/h
18.02.2017 16:00 5,7 C 80 % 1025,0 hPa 0,0 l/m 3,2 km/h N 2,4 C 5,7 C 11,3 km/h
18.02.2017 17:00 5,3 C 80 % 1025,6 hPa 0,0 l/m 2,5 km/h N 2,2 C 5,3 C 8,4 km/h
18.02.2017 18:00 4,9 C 82 % 1026,1 hPa 0,0 l/m 1,5 km/h N 2,1 C 4,9 C 8,9 km/h
18.02.2017 19:00 4,2 C 83 % 1026,3 hPa 0,0 l/m 1,3 km/h N 1,6 C 4,2 C 6,0 km/h
18.02.2017 20:00 3,5 C 83 % 1026,6 hPa 0,0 l/m 0,2 km/h N 0,8 C 3,5 C 3,2 km/h
18.02.2017 21:00 2,7 C 83 % 1026,8 hPa 0,0 l/m 0,2 km/h N 0,1 C 2,7 C 3,2 km/h
18.02.2017 22:00 2,4 C 84 % 1026,6 hPa 0,3 l/m 0,3 km/h N -0,0 C 2,4 C 4,8 km/h
18.02.2017 23:00 2,0 C 84 % 1026,9 hPa 0,0 l/m 0,0 km/h N -0,4 C 2,0 C 0,4 km/h
19.02.2017 00:00 1,5 C 84 % 1026,8 hPa 0,0 l/m 0,0 km/h N -0,9 C 1,5 C 0,0 km/h
19.02.2017 01:00 1,2 C 84 % 1026,5 hPa 0,0 l/m 0,0 km/h N -1,2 C 1,2 C 0,0 km/h
19.02.2017 02:00 0,3 C 84 % 1026,4 hPa 0,0 l/m 0,0 km/h N -2,1 C 0,3 C 0,0 km/h
19.02.2017 03:00 -0,2 C 84 % 1026,3 hPa 0,0 l/m 0,0 km/h N -2,5 C -0,2 C 0,0 km/h
19.02.2017 04:00 0,0 C 84 % 1026,1 hPa 0,0 l/m 0,0 km/h N -2,4 C 0,0 C 1,2 km/h
19.02.2017 05:00 0,4 C 84 % 1026,0 hPa 0,0 l/m 0,0 km/h N -2,0 C 0,4 C 0,4 km/h
19.02.2017 06:00 -0,9 C 84 % 1025,9 hPa 0,0 l/m 0,0 km/h N -3,2 C -0,9 C 0,8 km/h
19.02.2017 07:00 -1,7 C 84 % 1026,1 hPa 0,0 l/m 0,0 km/h N -4,0 C -1,7 C 0,0 km/h
19.02.2017 08:00 -0,4 C 84 % 1026,4 hPa 0,0 l/m 0,0 km/h N -2,8 C -0,4 C 1,6 km/h
19.02.2017 09:00 2,2 C 84 % 1026,2 hPa 0,0 l/m 0,0 km/h N -0,2 C 2,2 C 0,4 km/h
19.02.2017 10:00 4,8 C 84 % 1025,7 hPa 0,0 l/m 0,1 km/h N 2,3 C 4,8 C 3,2 km/h
19.02.2017 11:00 7,1 C 80 % 1025,3 hPa 0,0 l/m 0,5 km/h N 3,9 C 7,1 C 6,0 km/h
19.02.2017 12:00 8,6 C 65 % 1024,6 hPa 0,0 l/m 0,6 km/h N 2,3 C 8,6 C 6,0 km/h
19.02.2017 13:00 7,4 C 67 % 1024,0 hPa 0,0 l/m 0,2 km/h N 1,6 C 7,4 C 4,8 km/h
19.02.2017 14:00 8,1 C 65 % 1023,3 hPa 0,0 l/m 0,1 km/h N 1,9 C 8,1 C 2,8 km/h
19.02.2017 15:00 7,9 C 65 % 1022,8 hPa 0,0 l/m 0,0 km/h N 1,7 C 7,9 C 2,0 km/h
19.02.2017 16:00 7,2 C 68 % 1022,3 hPa 0,0 l/m 0,0 km/h N 1,7 C 7,2 C 1,2 km/h
19.02.2017 17:00 6,2 C 69 % 1022,1 hPa 0,0 l/m 0,0 km/h N 0,9 C 6,2 C 0,0 km/h
19.02.2017 18:00 4,1 C 73 % 1022,1 hPa 0,0 l/m 0,0 km/h N -0,4 C 4,1 C 0,0 km/h
19.02.2017 19:00 3,0 C 79 % 1022,3 hPa 0,0 l/m 0,0 km/h N -0,3 C 3,0 C 0,0 km/h
19.02.2017 20:00 1,9 C 81 % 1022,0 hPa 0,0 l/m 0,0 km/h N -1,1 C 1,9 C 0,0 km/h
19.02.2017 21:00 0,7 C 82 % 1021,8 hPa 0,0 l/m 0,0 km/h N -2,1 C 0,7 C 0,8 km/h
19.02.2017 22:00 -0,0 C 83 % 1021,8 hPa 0,0 l/m 0,0 km/h N -2,6 C -0,0 C 1,6 km/h
19.02.2017 23:00 -0,9 C 84 % 1022,0 hPa 0,0 l/m 0,0 km/h N -3,4 C -0,9 C 1,2 km/h
Min-Datum _ 14.02.17 15.02.17 19.02.17 - 13.02.17 - 14.02.17 14.02.17 13.02.17
_ Min-Zeit 07:15 15:00 21:45 - 00:00 - 07:15 07:15 00:15
Minimum _ -6,6 C 45 % 1021,7 hPa - 0,0 km/h - -8,7 C -6,6 C 0,0 km/h
Max-Datum _ 15.02.17 14.02.17 15.02.17 18.02.17 17.02.17 - 19.02.17 15.02.17 18.02.17
_ Max-Zeit 15:15 06:15 08:00 07:15 23:15 - 11:15 15:15 01:30
Maximum _ 11,8 C 85 % 1037,2 hPa 0,5 l/m 14,1 km/h
N
- 4,0 C 11,8 C 35,4 km/h
N
Durchschnitt _ 1,3 C 79 % 1030,4 hPa #1,6 l/m 1,3 km/h N -2,1 C 1,1 C 4,8 km/h